createdAt,value
2022-12-09T00:02:13.543Z,8.30
2022-12-09T00:04:42.402Z,8.98
2022-12-09T00:07:11.155Z,7.35
2022-12-09T00:09:39.895Z,8.27
2022-12-09T00:12:10.029Z,8.57
2022-12-09T00:14:38.935Z,7.32
2022-12-09T00:17:07.663Z,10.00
2022-12-09T00:19:36.724Z,11.50
2022-12-09T00:22:05.264Z,9.32
2022-12-09T00:24:33.910Z,6.82
2022-12-09T00:27:02.701Z,11.15
2022-12-09T00:29:32.800Z,12.07
2022-12-09T00:32:01.467Z,8.20
2022-12-09T00:34:30.052Z,12.68
2022-12-09T00:36:58.655Z,8.10
2022-12-09T00:39:27.552Z,10.38
2022-12-09T00:41:56.073Z,9.45
2022-12-09T00:44:24.615Z,12.38
2022-12-09T00:46:54.834Z,10.32
2022-12-09T00:49:23.738Z,8.45
2022-12-09T00:51:54.088Z,8.35
2022-12-09T00:54:23.905Z,8.98
2022-12-09T00:56:52.491Z,8.35
2022-12-09T00:59:21.047Z,8.95
2022-12-09T01:01:49.909Z,8.95
2022-12-09T01:04:21.388Z,11.75
2022-12-09T01:06:50.028Z,11.35
2022-12-09T01:09:19.049Z,8.75
2022-12-09T01:11:47.959Z,10.50
2022-12-09T01:14:16.552Z,12.32
2022-12-09T01:16:45.505Z,10.57
2022-12-09T01:19:15.142Z,10.35
2022-12-09T01:21:45.065Z,13.63
2022-12-09T01:24:15.429Z,12.02
2022-12-09T01:26:44.354Z,9.10
2022-12-09T01:29:13.210Z,12.57
2022-12-09T01:31:42.195Z,13.35
2022-12-09T01:34:10.863Z,10.23
2022-12-09T01:36:39.625Z,10.73
2022-12-09T01:39:10.931Z,14.40
2022-12-09T01:41:39.876Z,10.93
2022-12-09T01:44:13.140Z,10.60
2022-12-09T01:46:42.724Z,11.65
2022-12-09T01:49:15.490Z,14.77
2022-12-09T01:51:46.194Z,12.68
2022-12-09T01:54:17.992Z,12.27
2022-12-09T01:56:47.086Z,13.50
2022-12-09T01:59:17.135Z,9.13
2022-12-09T02:01:49.504Z,10.55
2022-12-09T02:04:18.774Z,9.98
2022-12-09T02:06:47.625Z,13.15
2022-12-09T02:09:20.908Z,9.73
2022-12-09T02:12:11.361Z,10.90
2022-12-09T02:14:44.095Z,9.82
2022-12-09T02:17:26.878Z,12.43
2022-12-09T02:20:06.300Z,11.55
2022-12-09T02:22:41.547Z,10.20
2022-12-09T02:25:27.725Z,10.20
2022-12-09T02:28:22.945Z,9.25
2022-12-09T02:30:59.987Z,10.38
2022-12-09T02:33:42.001Z,10.40
2022-12-09T02:36:18.992Z,9.57
2022-12-09T02:38:52.239Z,9.25
2022-12-09T02:41:24.969Z,10.43
2022-12-09T02:43:57.563Z,9.80
2022-12-09T02:46:31.902Z,9.32
2022-12-09T02:49:01.511Z,10.27
2022-12-09T02:51:35.332Z,9.93
2022-12-09T02:54:10.754Z,13.63
2022-12-09T02:56:45.450Z,10.07
2022-12-09T02:59:14.165Z,10.27
2022-12-09T03:01:50.230Z,9.77
2022-12-09T03:04:24.141Z,9.60
2022-12-09T03:06:57.776Z,9.82
2022-12-09T03:09:30.945Z,10.73
2022-12-09T03:12:02.856Z,10.38
2022-12-09T03:14:38.491Z,9.05
2022-12-09T03:17:14.081Z,10.00
2022-12-09T03:19:47.284Z,10.43
2022-12-09T03:22:24.168Z,10.20
2022-12-09T03:24:58.795Z,9.18
2022-12-09T03:27:31.781Z,10.05
2022-12-09T03:30:03.251Z,9.60
2022-12-09T03:32:33.987Z,10.35
2022-12-09T03:35:06.351Z,12.02
2022-12-09T03:37:37.496Z,10.55
2022-12-09T03:40:13.920Z,10.82
2022-12-09T03:42:47.914Z,9.25
2022-12-09T03:45:19.007Z,9.27
2022-12-09T03:47:48.272Z,9.25
2022-12-09T03:50:17.122Z,10.77
2022-12-09T03:52:51.074Z,11.45
2022-12-09T03:55:25.881Z,9.50
2022-12-09T03:57:58.752Z,11.98
2022-12-09T04:00:27.739Z,9.40
2022-12-09T04:02:56.511Z,9.10
2022-12-09T04:05:25.337Z,9.52
2022-12-09T04:07:55.283Z,9.38
2022-12-09T04:10:23.909Z,10.65
2022-12-09T04:12:52.695Z,9.20
2022-12-09T04:15:21.472Z,7.72
2022-12-09T04:17:50.211Z,11.95
2022-12-09T04:20:19.498Z,8.18
2022-12-09T04:22:48.108Z,10.30
2022-12-09T04:25:18.299Z,11.13
2022-12-09T04:27:46.864Z,13.07
2022-12-09T04:30:15.621Z,10.77
2022-12-09T04:32:45.072Z,9.90
2022-12-09T04:35:13.851Z,9.57
2022-12-09T04:37:43.220Z,9.27
2022-12-09T04:40:18.036Z,9.52
2022-12-09T04:42:51.384Z,10.05
2022-12-09T04:45:20.255Z,9.32
2022-12-09T04:47:49.431Z,10.23
2022-12-09T04:50:18.379Z,11.38
2022-12-09T04:52:46.904Z,9.50
2022-12-09T04:55:16.111Z,11.88
2022-12-09T04:57:44.950Z,9.07
2022-12-09T05:00:16.370Z,8.63
2022-12-09T05:02:45.492Z,9.48
2022-12-09T05:05:14.416Z,9.32
2022-12-09T05:07:43.606Z,11.40
2022-12-09T05:10:13.120Z,8.68
2022-12-09T05:12:42.158Z,9.25
2022-12-09T05:15:11.645Z,10.65
2022-12-09T05:17:41.697Z,15.05
2022-12-09T05:20:11.686Z,9.18
2022-12-09T05:22:40.644Z,8.07
2022-12-09T05:25:10.285Z,8.75
2022-12-09T05:27:40.058Z,9.48
2022-12-09T05:30:10.128Z,11.15
2022-12-09T05:32:39.251Z,8.57
2022-12-09T05:35:10.393Z,8.63
2022-12-09T05:37:39.096Z,6.78
2022-12-09T05:40:09.400Z,9.60
2022-12-09T05:42:41.650Z,8.52
2022-12-09T05:45:11.939Z,9.55
2022-12-09T05:47:41.829Z,8.65
2022-12-09T05:50:12.831Z,8.50
2022-12-09T05:52:42.100Z,7.90
2022-12-09T05:55:12.018Z,10.68
2022-12-09T05:57:40.946Z,7.38
2022-12-09T06:00:10.857Z,8.52
2022-12-09T06:02:42.664Z,7.40
2022-12-09T06:05:12.950Z,8.20
2022-12-09T06:07:42.360Z,10.95
2022-12-09T06:10:12.094Z,8.23
2022-12-09T06:12:41.097Z,11.65
2022-12-09T06:15:11.985Z,7.82
2022-12-09T06:17:42.532Z,8.52
2022-12-09T06:20:15.162Z,9.85
2022-12-09T06:22:44.653Z,9.32
2022-12-09T06:25:16.541Z,7.85
2022-12-09T06:27:45.680Z,9.43
2022-12-09T06:30:14.973Z,9.93
2022-12-09T06:32:43.817Z,9.20
2022-12-09T06:35:14.803Z,10.10
2022-12-09T06:37:44.241Z,9.70
2022-12-09T06:40:13.737Z,8.20
2022-12-09T06:42:42.529Z,9.05
2022-12-09T06:45:12.846Z,9.80
2022-12-09T06:47:42.218Z,12.15
2022-12-09T06:50:13.896Z,15.13
2022-12-09T06:52:42.926Z,13.55
2022-12-09T06:55:13.084Z,12.75
2022-12-09T06:57:42.522Z,11.75
2022-12-09T07:00:12.060Z,9.93
2022-12-09T07:02:40.970Z,10.45
2022-12-09T07:05:11.426Z,9.57
2022-12-09T07:07:41.850Z,11.27
2022-12-09T07:10:12.205Z,8.45
2022-12-09T07:12:41.266Z,12.68
2022-12-09T07:15:12.148Z,13.13
2022-12-09T07:17:41.478Z,12.98
2022-12-09T07:20:11.212Z,11.90
2022-12-09T07:22:41.407Z,10.95
2022-12-09T07:25:11.184Z,10.65
2022-12-09T07:27:41.153Z,12.13
2022-12-09T07:30:10.965Z,16.92
2022-12-09T07:32:39.954Z,12.60
2022-12-09T07:35:10.762Z,14.25
2022-12-09T07:37:41.393Z,12.95
2022-12-09T07:40:11.193Z,9.15
2022-12-09T07:42:39.894Z,12.27
2022-12-09T07:45:10.542Z,10.73
2022-12-09T07:47:39.402Z,11.07
2022-12-09T07:50:09.297Z,12.38
2022-12-09T07:52:38.406Z,10.43
2022-12-09T07:55:10.699Z,10.27
2022-12-09T07:57:39.554Z,12.90
2022-12-09T08:00:09.992Z,11.52
2022-12-09T08:02:42.832Z,11.32
2022-12-09T08:05:12.096Z,12.15
2022-12-09T08:07:44.531Z,10.60
2022-12-09T08:10:15.567Z,12.25
2022-12-09T08:12:44.360Z,11.57
2022-12-09T08:15:13.627Z,15.05
2022-12-09T08:17:47.177Z,12.88
2022-12-09T08:20:16.742Z,10.50
2022-12-09T08:22:46.109Z,11.95
2022-12-09T08:25:16.666Z,13.00
2022-12-09T08:27:45.729Z,11.35
2022-12-09T08:30:15.331Z,11.60
2022-12-09T08:32:44.370Z,13.27
2022-12-09T08:35:15.290Z,10.85
2022-12-09T08:37:44.458Z,11.60
2022-12-09T08:40:14.268Z,12.68
2022-12-09T08:42:45.153Z,12.68
2022-12-09T08:45:13.857Z,12.38
2022-12-09T08:47:43.533Z,13.13
2022-12-09T08:50:12.991Z,14.18
2022-12-09T08:52:43.032Z,12.18
2022-12-09T08:55:12.144Z,16.67
2022-12-09T08:57:41.147Z,20.20
2022-12-09T09:00:12.602Z,12.68
2022-12-09T09:02:42.120Z,14.35
2022-12-09T09:05:11.596Z,14.85
2022-12-09T09:07:41.718Z,14.10
2022-12-09T09:10:11.787Z,13.13
2022-12-09T09:12:43.625Z,13.77
2022-12-09T09:15:14.849Z,17.58
2022-12-09T09:17:51.294Z,15.77
2022-12-09T09:20:21.592Z,14.45
2022-12-09T09:22:50.310Z,17.98
2022-12-09T09:25:19.303Z,17.25
2022-12-09T09:27:48.423Z,15.75
2022-12-09T09:30:19.060Z,15.90
2022-12-09T09:32:47.880Z,15.68
2022-12-09T09:35:17.982Z,15.00
2022-12-09T09:37:47.083Z,15.82
2022-12-09T09:40:16.811Z,19.15
2022-12-09T09:42:49.207Z,16.55
2022-12-09T09:45:22.094Z,16.08
2022-12-09T09:47:55.260Z,17.52
2022-12-09T09:50:31.169Z,17.27
2022-12-09T09:53:03.193Z,19.70
2022-12-09T09:55:43.879Z,19.63
2022-12-09T09:58:18.257Z,14.40
2022-12-09T10:00:58.416Z,21.02
2022-12-09T10:03:37.035Z,19.75
2022-12-09T10:06:19.952Z,16.10
2022-12-09T10:08:57.284Z,17.63
2022-12-09T10:11:33.440Z,21.10
2022-12-09T10:14:10.115Z,18.73
2022-12-09T10:16:45.136Z,21.20
2022-12-09T10:19:20.963Z,23.02
2022-12-09T10:21:54.567Z,21.60
2022-12-09T10:24:27.728Z,20.40
2022-12-09T10:27:06.898Z,20.42
2022-12-09T10:29:55.263Z,20.00
2022-12-09T10:32:29.014Z,20.05
2022-12-09T10:34:58.493Z,23.17
2022-12-09T10:37:31.636Z,21.10
2022-12-09T10:40:06.185Z,23.92
2022-12-09T10:43:00.049Z,22.08
2022-12-09T10:45:40.341Z,18.88
2022-12-09T10:48:32.704Z,21.02
2022-12-09T10:51:05.304Z,20.05
2022-12-09T10:53:36.825Z,19.35
2022-12-09T10:56:08.518Z,22.80
2022-12-09T10:58:37.342Z,19.30
2022-12-09T11:01:09.565Z,23.60
2022-12-09T11:03:48.177Z,21.08
2022-12-09T11:06:23.910Z,19.55
2022-12-09T11:08:56.659Z,23.00
2022-12-09T11:11:44.635Z,19.60
2022-12-09T11:14:24.031Z,19.25
2022-12-09T11:16:54.767Z,19.17
2022-12-09T11:19:34.111Z,20.10
2022-12-09T11:22:23.093Z,21.67
2022-12-09T11:24:54.770Z,22.63
2022-12-09T11:27:29.752Z,19.55
2022-12-09T11:30:14.491Z,19.25
2022-12-09T11:32:58.763Z,24.17
2022-12-09T11:35:33.215Z,21.88
2022-12-09T11:38:15.672Z,22.55
2022-12-09T11:40:45.049Z,21.02
2022-12-09T11:43:13.913Z,20.42
2022-12-09T11:45:47.126Z,21.20
2022-12-09T11:48:30.286Z,19.95
2022-12-09T11:51:03.976Z,20.55
2022-12-09T11:53:34.140Z,20.75
2022-12-09T11:56:08.250Z,24.50
2022-12-09T11:58:44.635Z,18.80
2022-12-09T12:01:16.892Z,19.98
2022-12-09T12:03:48.980Z,22.15
2022-12-09T12:06:23.682Z,21.45
2022-12-09T12:08:55.803Z,19.20
2022-12-09T12:11:29.741Z,20.50
2022-12-09T12:14:05.049Z,19.10
2022-12-09T12:16:39.944Z,19.63
2022-12-09T12:19:15.991Z,22.00
2022-12-09T12:22:08.272Z,20.65
2022-12-09T12:25:00.427Z,22.55
2022-12-09T12:27:42.599Z,18.50
2022-12-09T12:30:13.651Z,18.25
2022-12-09T12:35:57.944Z,21.58
2022-12-09T12:38:42.106Z,18.48
2022-12-09T12:41:18.047Z,20.02
2022-12-09T12:44:32.755Z,19.13
2022-12-09T12:47:08.287Z,16.95
2022-12-09T12:49:52.357Z,21.08
2022-12-09T12:52:54.924Z,20.63
2022-12-09T12:55:42.970Z,17.48
2022-12-09T12:58:17.988Z,20.98
2022-12-09T13:01:00.463Z,20.33
2022-12-09T13:03:37.083Z,23.10
2022-12-09T13:06:10.068Z,14.98
2022-12-09T13:08:43.690Z,16.40
2022-12-09T13:11:20.542Z,16.30
2022-12-09T13:13:53.335Z,18.90
2022-12-09T13:16:27.594Z,15.75
2022-12-09T13:19:12.399Z,13.23
2022-12-09T13:21:41.712Z,11.73
2022-12-09T13:24:26.244Z,12.25
2022-12-09T13:27:03.275Z,12.93
2022-12-09T13:29:40.896Z,12.48
2022-12-09T13:32:24.366Z,13.20
2022-12-09T13:34:56.423Z,11.18
2022-12-09T13:37:54.830Z,14.98
2022-12-09T13:40:36.786Z,17.23
2022-12-09T13:43:13.178Z,12.20
2022-12-09T13:45:54.652Z,14.35
2022-12-09T13:48:48.425Z,13.93
2022-12-09T13:51:18.472Z,12.50
2022-12-09T13:53:51.534Z,14.00
2022-12-09T13:56:27.548Z,15.13
2022-12-09T13:59:23.104Z,12.70
2022-12-09T14:01:54.902Z,17.48
2022-12-09T14:04:27.921Z,13.25
2022-12-09T14:07:09.829Z,14.00
2022-12-09T14:09:48.300Z,16.40
2022-12-09T14:13:01.078Z,16.58
2022-12-09T14:15:41.566Z,19.02
2022-12-09T14:18:33.008Z,18.42
2022-12-09T14:21:30.783Z,18.65
2022-12-09T14:24:42.431Z,20.85
2022-12-09T14:27:16.752Z,19.77
2022-12-09T14:29:52.111Z,21.63
2022-12-09T14:32:27.758Z,23.85
2022-12-09T14:35:26.561Z,18.38
2022-12-09T14:38:11.090Z,18.98
2022-12-09T14:40:52.817Z,18.13
2022-12-09T14:44:09.464Z,18.55
2022-12-09T14:46:40.620Z,18.52
2022-12-09T14:49:17.611Z,27.27
2022-12-09T14:51:49.275Z,20.20
2022-12-09T14:54:22.985Z,23.45
2022-12-09T14:56:54.311Z,23.58
2022-12-09T14:59:25.078Z,24.63
2022-12-09T15:01:56.925Z,24.85
2022-12-09T15:04:31.216Z,22.85
2022-12-09T15:07:14.962Z,22.80
2022-12-09T15:09:55.597Z,30.45
2022-12-09T15:12:30.242Z,30.33
2022-12-09T15:15:04.398Z,21.67
2022-12-09T15:17:38.916Z,21.10
2022-12-09T15:20:20.232Z,26.02
2022-12-09T15:22:53.343Z,24.27
2022-12-09T15:25:23.728Z,26.77
2022-12-09T15:28:01.442Z,20.70
2022-12-09T15:30:33.512Z,21.70
2022-12-09T15:33:03.136Z,18.67
2022-12-09T15:35:34.855Z,17.52
2022-12-09T15:38:07.643Z,22.00
2022-12-09T15:40:37.706Z,21.10
2022-12-09T15:43:09.770Z,19.30
2022-12-09T15:45:43.282Z,22.15
2022-12-09T15:48:18.756Z,22.45
2022-12-09T15:50:50.714Z,21.27
2022-12-09T15:53:23.161Z,21.40
2022-12-09T15:55:54.252Z,19.90
2022-12-09T15:58:26.717Z,19.33
2022-12-09T16:00:55.829Z,19.90
2022-12-09T16:03:27.674Z,27.65
2022-12-09T16:06:00.712Z,23.83
2022-12-09T16:08:34.925Z,22.48
2022-12-09T16:11:04.144Z,21.75
2022-12-09T16:13:33.022Z,21.48
2022-12-09T16:16:03.216Z,25.73
2022-12-09T16:18:35.421Z,26.65
2022-12-09T16:21:25.670Z,26.05
2022-12-09T16:23:57.122Z,24.35
2022-12-09T16:26:32.186Z,24.08
2022-12-09T16:29:02.932Z,24.95
2022-12-09T16:31:31.790Z,29.55
2022-12-09T16:34:00.533Z,25.20
2022-12-09T16:36:32.551Z,28.10
2022-12-09T16:39:35.279Z,26.52
2022-12-09T16:42:04.009Z,24.48
2022-12-09T16:44:35.313Z,25.88
2022-12-09T16:47:11.474Z,25.98
2022-12-09T16:49:41.345Z,32.92
2022-12-09T16:52:15.124Z,35.03
2022-12-09T16:54:44.768Z,24.70
2022-12-09T16:57:15.025Z,27.52
2022-12-09T16:59:43.984Z,34.17
2022-12-09T17:02:19.976Z,26.50
2022-12-09T17:04:50.044Z,30.40
2022-12-09T17:07:20.029Z,25.80
2022-12-09T17:09:48.570Z,26.35
2022-12-09T17:12:17.217Z,26.50
2022-12-09T17:14:45.856Z,25.50
2022-12-09T17:17:14.524Z,32.83
2022-12-09T17:19:44.299Z,26.92
2022-12-09T17:22:12.843Z,26.77
2022-12-09T17:24:42.918Z,30.48
2022-12-09T17:27:11.618Z,28.98
2022-12-09T17:29:40.206Z,31.77
2022-12-09T17:32:09.347Z,31.25
2022-12-09T17:34:38.275Z,28.98
2022-12-09T17:37:06.914Z,31.77
2022-12-09T17:39:35.937Z,29.52
2022-12-09T17:42:06.252Z,30.67
2022-12-09T17:44:35.097Z,28.27
2022-12-09T17:47:03.775Z,31.77
2022-12-09T17:49:32.398Z,25.98
2022-12-09T17:52:01.048Z,30.05
2022-12-09T17:54:29.684Z,28.00
2022-12-09T17:56:58.272Z,27.60
2022-12-09T17:59:28.276Z,28.55
2022-12-09T18:01:56.857Z,31.00
2022-12-09T18:04:25.408Z,30.45
2022-12-09T18:06:53.939Z,30.33
2022-12-09T18:09:23.482Z,34.70
2022-12-09T18:11:52.437Z,32.25
2022-12-09T18:14:21.259Z,36.40
2022-12-09T18:16:51.231Z,32.40
2022-12-09T18:19:23.305Z,29.63
2022-12-09T18:21:52.192Z,34.15
2022-12-09T18:24:20.790Z,33.58
2022-12-09T18:26:49.349Z,32.72
2022-12-09T18:29:18.028Z,30.33
2022-12-09T18:31:49.578Z,26.85
2022-12-09T18:34:23.185Z,34.15
2022-12-09T18:36:52.091Z,33.67
2022-12-09T18:39:20.967Z,35.13
2022-12-09T18:41:49.749Z,33.28
2022-12-09T18:44:18.385Z,33.75
2022-12-09T18:46:49.031Z,27.88
2022-12-09T18:49:20.041Z,32.42
2022-12-09T18:51:51.592Z,31.48
2022-12-09T18:54:23.341Z,33.47
2022-12-09T18:56:52.150Z,31.67
2022-12-09T18:59:22.077Z,32.15
2022-12-09T19:01:51.111Z,33.85
2022-12-09T19:04:21.582Z,37.45
2022-12-09T19:06:53.221Z,28.92
2022-12-09T19:09:23.277Z,31.38
2022-12-09T19:11:53.273Z,32.80
2022-12-09T19:14:23.510Z,32.70
2022-12-09T19:16:53.921Z,30.35
2022-12-09T19:19:24.524Z,30.90
2022-12-09T19:21:55.905Z,32.05
2022-12-09T19:24:26.207Z,34.60
2022-12-09T19:26:56.572Z,32.50
2022-12-09T19:29:27.932Z,37.63
2022-12-09T19:31:58.269Z,31.88
2022-12-09T19:34:28.788Z,30.48
2022-12-09T19:37:01.261Z,30.20
2022-12-09T19:39:34.123Z,32.33
2022-12-09T19:42:03.228Z,34.38
2022-12-09T19:44:59.561Z,29.77
2022-12-09T19:47:20.403Z,31.88
2022-12-09T19:49:49.478Z,30.52
2022-12-09T19:52:19.536Z,32.65
2022-12-09T19:54:48.012Z,30.92
2022-12-09T19:57:16.670Z,28.98
2022-12-09T19:59:47.338Z,34.22
2022-12-09T20:02:15.994Z,31.80
2022-12-09T20:04:49.682Z,30.92
2022-12-09T20:07:20.895Z,30.23
2022-12-09T20:09:49.870Z,35.03
2022-12-09T20:12:18.462Z,32.97
2022-12-09T20:14:46.985Z,31.55
2022-12-09T20:17:16.551Z,36.78
2022-12-09T20:19:45.080Z,33.47
2022-12-09T20:22:13.689Z,40.17
2022-12-09T20:24:44.173Z,37.58
2022-12-09T20:27:12.828Z,39.08
2022-12-09T20:29:41.508Z,39.10
2022-12-09T20:32:10.440Z,37.28
2022-12-09T20:34:39.545Z,31.73
2022-12-09T20:37:08.316Z,39.65
2022-12-09T20:39:36.991Z,36.28
2022-12-09T20:42:06.981Z,33.67
2022-12-09T20:44:35.573Z,35.58
2022-12-09T20:47:04.244Z,36.00
2022-12-09T20:49:32.723Z,38.30
2022-12-09T20:52:01.320Z,38.03
2022-12-09T20:54:30.001Z,36.17
2022-12-09T20:56:58.692Z,40.65
2022-12-09T20:59:28.801Z,37.33
2022-12-09T21:01:57.457Z,35.80
2022-12-09T21:04:26.162Z,32.47
2022-12-09T21:06:54.799Z,35.30
2022-12-09T21:09:26.963Z,39.10
2022-12-09T21:11:55.520Z,43.55
2022-12-09T21:14:28.136Z,43.90
2022-12-09T21:17:02.959Z,43.58
2022-12-09T21:19:32.521Z,40.17
2022-12-09T21:22:01.403Z,35.95
2022-12-09T21:24:29.970Z,36.85
2022-12-09T21:26:58.480Z,45.97
2022-12-09T21:29:31.883Z,40.85
2022-12-09T21:32:03.048Z,42.00
2022-12-09T21:34:31.750Z,54.63
2022-12-09T21:37:00.331Z,52.92
2022-12-09T21:39:29.334Z,52.92
2022-12-09T21:41:57.939Z,45.80
2022-12-09T21:44:27.204Z,46.10
2022-12-09T21:46:55.757Z,42.03
2022-12-09T21:49:26.075Z,43.33
2022-12-09T21:51:54.524Z,42.92
2022-12-09T21:54:23.024Z,41.05
2022-12-09T21:56:51.682Z,44.08
2022-12-09T21:59:20.287Z,44.40
2022-12-09T22:01:48.746Z,40.70
2022-12-09T22:04:18.046Z,41.85
2022-12-09T22:06:49.849Z,42.53
2022-12-09T22:09:20.955Z,45.83
2022-12-09T22:11:49.691Z,43.60
2022-12-09T22:14:18.373Z,41.28
2022-12-09T22:16:47.465Z,39.97
2022-12-09T22:19:18.701Z,41.15
2022-12-09T22:21:49.421Z,34.67
2022-12-09T22:24:18.750Z,38.88
2022-12-09T22:26:47.720Z,35.88
2022-12-09T22:29:17.507Z,36.13
2022-12-09T22:31:46.859Z,40.97
2022-12-09T22:34:17.697Z,39.83
2022-12-09T22:36:48.615Z,41.22
2022-12-09T22:39:19.267Z,40.92
2022-12-09T22:41:47.970Z,43.15
2022-12-09T22:44:19.290Z,45.47
2022-12-09T22:46:48.292Z,43.30
2022-12-09T22:49:17.765Z,46.00
2022-12-09T22:51:48.426Z,43.70
2022-12-09T22:54:17.099Z,39.88
2022-12-09T22:56:46.018Z,40.45
2022-12-09T22:59:15.495Z,46.78
2022-12-09T23:01:45.954Z,43.63
2022-12-09T23:04:16.495Z,42.92
2022-12-09T23:06:45.667Z,44.50
2022-12-09T23:09:18.802Z,42.30
2022-12-09T23:11:48.194Z,42.97
2022-12-09T23:14:17.213Z,37.67
2022-12-09T23:16:46.289Z,41.42
2022-12-09T23:19:14.792Z,42.70
2022-12-09T23:21:44.074Z,35.70
2022-12-09T23:24:24.323Z,40.20
2022-12-09T23:26:55.636Z,36.47
2022-12-09T23:29:24.443Z,45.08
2022-12-09T23:36:48.772Z,40.15
2022-12-09T23:39:20.008Z,45.60
2022-12-09T23:41:49.983Z,43.40
2022-12-09T23:44:19.764Z,36.53
2022-12-09T23:46:48.430Z,41.22
2022-12-09T23:49:17.691Z,40.08
2022-12-09T23:51:46.394Z,38.22
2022-12-09T23:54:16.932Z,35.97
2022-12-09T23:56:49.896Z,38.55
2022-12-09T23:59:21.195Z,36.95
